Norfolk, Virginia
Traffic Map
Current Weather Conditions
Norfolk, Virginia
Scattered Clouds
Scattered Clouds

Feels Like: 4°
Wind Chill: Ceiling: Unl
Heat Index: Visibility: 10mi
Dew Point: -3° Wind: 9mph
Humidity: 49% Direction: 170° (S)
Pressure: 30.04in Gusts: 0mph
Raw Report DataKORF 020051Z AUTO 17008KT 10SM SCT120 07/M03 A3004 RMK AO2 SLP173 T00671033 TSNO $
Traffic Incident Summary
Active as of:
Severity:
Category:
InformationThere was an issue retrieving the traffic information for this location. Please try a different location or try again shortly.
Advertisements
Track Severe Weather on mobile